createdAt,value
2023-05-17T00:01:31.007Z,100401.80
2023-05-17T00:06:41.345Z,100399.00
2023-05-17T00:11:51.170Z,100402.20
2023-05-17T00:17:01.031Z,100399.20
2023-05-17T00:22:11.073Z,100394.00
2023-05-17T00:27:20.670Z,100395.00
2023-05-17T00:32:30.715Z,100403.20
2023-05-17T00:37:40.475Z,100398.60
2023-05-17T00:42:50.686Z,100388.80
2023-05-17T00:48:00.356Z,100393.00
2023-05-17T00:53:11.417Z,100398.00
2023-05-17T00:58:22.178Z,100386.40
2023-05-17T01:03:32.497Z,100380.40
2023-05-17T01:08:42.573Z,100377.20
2023-05-17T01:14:05.215Z,100381.80
2023-05-17T01:19:32.647Z,100368.00
2023-05-17T01:24:55.275Z,100372.00
2023-05-17T01:30:07.819Z,100369.00
2023-05-17T01:35:18.470Z,100377.20
2023-05-17T01:40:29.501Z,100364.80
2023-05-17T01:45:48.952Z,100358.40
2023-05-17T01:51:01.599Z,100358.20
2023-05-17T01:56:22.017Z,100364.20
2023-05-17T02:01:33.885Z,100354.00
2023-05-17T02:06:43.684Z,100343.80
2023-05-17T02:11:53.391Z,100350.00
2023-05-17T02:17:06.170Z,100354.20
2023-05-17T02:22:16.262Z,100359.20
2023-05-17T02:27:25.920Z,100355.20
2023-05-17T02:32:35.799Z,100354.40
2023-05-17T02:37:45.524Z,100341.00
2023-05-17T02:42:55.303Z,100340.80
2023-05-17T02:48:05.295Z,100348.00
2023-05-17T02:53:14.962Z,100354.80
2023-05-17T02:58:25.032Z,100350.80
2023-05-17T03:03:34.853Z,100349.40
2023-05-17T03:08:44.622Z,100356.40
2023-05-17T03:13:54.438Z,100356.20
2023-05-17T03:19:04.683Z,100367.20
2023-05-17T03:24:14.834Z,100361.60
2023-05-17T03:29:24.983Z,100360.60
2023-05-17T03:34:34.925Z,100366.20
2023-05-17T03:39:44.733Z,100374.00
2023-05-17T03:44:54.375Z,100376.00
2023-05-17T03:50:04.301Z,100384.80
2023-05-17T03:55:14.975Z,100392.80
2023-05-17T04:00:25.330Z,100392.00
2023-05-17T04:05:35.285Z,100389.00
2023-05-17T04:10:45.506Z,100396.00
2023-05-17T04:15:55.849Z,100394.80
2023-05-17T04:21:06.506Z,100396.80
2023-05-17T04:26:16.408Z,100402.20
2023-05-17T04:31:26.568Z,100395.20
2023-05-17T04:36:36.539Z,100411.80
2023-05-17T04:41:46.832Z,100421.00
2023-05-17T04:46:56.734Z,100416.40
2023-05-17T04:52:07.683Z,100417.00
2023-05-17T04:57:17.243Z,100406.00
2023-05-17T05:02:27.547Z,100404.60
2023-05-17T05:07:38.290Z,100420.60
2023-05-17T05:12:48.151Z,100424.20
2023-05-17T05:18:04.514Z,100421.40
2023-05-17T05:23:14.463Z,100420.00
2023-05-17T05:28:24.109Z,100423.60
2023-05-17T05:33:34.046Z,100431.40
2023-05-17T05:38:43.950Z,100416.00
2023-05-17T05:43:53.746Z,100423.40
2023-05-17T05:49:03.932Z,100428.00
2023-05-17T05:54:16.523Z,100445.40
2023-05-17T05:59:26.340Z,100445.60
2023-05-17T06:04:45.321Z,100454.40
2023-05-17T06:09:56.638Z,100452.00
2023-05-17T06:15:07.693Z,100467.00
2023-05-17T06:20:17.941Z,100465.00
2023-05-17T06:25:27.746Z,100474.00
2023-05-17T06:30:37.543Z,100476.60
2023-05-17T06:35:55.993Z,100479.60
2023-05-17T06:41:06.390Z,100487.60
2023-05-17T06:46:16.359Z,100488.40
2023-05-17T06:51:27.152Z,100483.40
2023-05-17T06:56:36.798Z,100470.00
2023-05-17T07:01:46.587Z,100472.60
2023-05-17T07:06:56.420Z,100467.60
2023-05-17T07:12:06.966Z,100483.60
2023-05-17T07:17:17.375Z,100471.60
2023-05-17T07:22:27.130Z,100469.80
2023-05-17T07:27:37.127Z,100484.00
2023-05-17T07:32:48.001Z,100495.80
2023-05-17T07:37:58.090Z,100507.20
2023-05-17T07:43:08.362Z,100515.80
2023-05-17T07:48:18.450Z,100514.60
2023-05-17T07:53:29.422Z,100526.00
2023-05-17T07:58:39.477Z,100530.80
2023-05-17T08:03:50.914Z,100534.00
2023-05-17T08:09:00.587Z,100541.20
2023-05-17T08:14:10.444Z,100554.60
2023-05-17T08:19:20.539Z,100553.60
2023-05-17T08:24:30.812Z,100548.80
2023-05-17T08:29:41.138Z,100545.80
2023-05-17T08:34:50.984Z,100541.20
2023-05-17T08:40:01.360Z,100531.40
2023-05-17T08:45:15.209Z,100544.80
2023-05-17T08:50:25.492Z,100543.60
2023-05-17T08:55:37.319Z,100540.40
2023-05-17T09:00:52.101Z,100547.00
2023-05-17T09:06:05.040Z,100554.40
2023-05-17T09:11:14.964Z,100557.80
2023-05-17T09:16:27.154Z,100549.00
2023-05-17T09:21:38.277Z,100542.60
2023-05-17T09:26:49.355Z,100558.20
2023-05-17T09:32:13.788Z,100582.60
2023-05-17T09:37:26.523Z,100585.20
2023-05-17T09:42:39.684Z,100588.60
2023-05-17T09:47:50.192Z,100577.80
2023-05-17T09:53:00.661Z,100576.20
2023-05-17T09:58:10.506Z,100569.40
2023-05-17T10:03:20.545Z,100577.60
2023-05-17T10:08:35.428Z,100577.00
2023-05-17T10:13:54.870Z,100577.00
2023-05-17T10:19:05.818Z,100577.60
2023-05-17T10:24:17.525Z,100571.40
2023-05-17T10:29:29.177Z,100566.40
2023-05-17T10:34:40.736Z,100557.40
2023-05-17T10:39:53.485Z,100550.60
2023-05-17T10:45:04.517Z,100565.20
2023-05-17T10:50:22.965Z,100560.40
2023-05-17T10:55:43.681Z,100572.60
2023-05-17T11:00:58.170Z,100572.40
2023-05-17T11:06:25.450Z,100595.20
2023-05-17T11:11:36.637Z,100582.60
2023-05-17T11:16:46.760Z,100598.60
2023-05-17T11:21:57.131Z,100602.40
2023-05-17T11:27:10.590Z,100586.00
2023-05-17T11:32:20.609Z,100609.40
2023-05-17T11:37:34.709Z,100605.80
2023-05-17T11:42:45.478Z,100604.20
2023-05-17T11:47:55.671Z,100597.80
2023-05-17T11:53:08.297Z,100604.40
2023-05-17T11:58:22.489Z,100595.60
2023-05-17T12:03:33.910Z,100596.00
2023-05-17T12:08:48.654Z,100619.00
2023-05-17T12:13:58.872Z,100614.60
2023-05-17T12:19:18.559Z,100619.00
2023-05-17T12:24:40.030Z,100633.00
2023-05-17T12:29:49.904Z,100627.40
2023-05-17T12:35:00.337Z,100637.80
2023-05-17T12:40:13.563Z,100644.40
2023-05-17T12:45:24.296Z,100652.00
2023-05-17T12:50:36.593Z,100653.00
2023-05-17T12:55:46.464Z,100658.60
2023-05-17T13:01:11.117Z,100667.80
2023-05-17T13:06:21.099Z,100669.60
2023-05-17T13:11:32.051Z,100667.40
2023-05-17T13:16:44.454Z,100668.40
2023-05-17T13:21:54.063Z,100667.20
2023-05-17T13:27:04.279Z,100672.60
2023-05-17T13:32:16.028Z,100684.40
2023-05-17T13:37:26.657Z,100687.40
2023-05-17T13:42:36.924Z,100693.00
2023-05-17T13:47:47.039Z,100687.00
2023-05-17T13:52:56.800Z,100695.20
2023-05-17T13:58:07.067Z,100700.40
2023-05-17T14:03:17.679Z,100711.80
2023-05-17T14:08:27.951Z,100711.00
2023-05-17T14:13:37.649Z,100703.00
2023-05-17T14:18:47.532Z,100710.80
2023-05-17T14:23:57.362Z,100724.00
2023-05-17T14:29:07.170Z,100728.00
2023-05-17T14:34:17.013Z,100727.60
2023-05-17T14:39:26.914Z,100740.20
2023-05-17T14:44:39.049Z,100746.20
2023-05-17T14:49:48.713Z,100745.20
2023-05-17T14:54:59.536Z,100751.40
2023-05-17T15:00:13.899Z,100757.00
2023-05-17T15:05:24.584Z,100772.60
2023-05-17T15:10:34.347Z,100777.60
2023-05-17T15:15:44.535Z,100769.40
2023-05-17T15:20:54.395Z,100781.40
2023-05-17T15:26:04.409Z,100784.00
2023-05-17T15:31:14.433Z,100788.40
2023-05-17T15:36:24.140Z,100783.80
2023-05-17T15:41:34.524Z,100799.60
2023-05-17T15:46:44.225Z,100810.00
2023-05-17T15:51:54.060Z,100819.60
2023-05-17T15:57:03.926Z,100818.20
2023-05-17T16:02:14.081Z,100813.00
2023-05-17T16:07:26.716Z,100834.80
2023-05-17T16:12:36.669Z,100850.80
2023-05-17T16:17:46.332Z,100864.60
2023-05-17T16:22:56.477Z,100864.60
2023-05-17T16:28:06.269Z,100877.00
2023-05-17T16:33:16.544Z,100875.80
2023-05-17T16:38:26.752Z,100895.80
2023-05-17T16:43:37.225Z,100900.40
2023-05-17T16:48:47.071Z,100912.00
2023-05-17T16:53:57.176Z,100924.20
2023-05-17T16:59:07.470Z,100937.00
2023-05-17T17:04:19.837Z,100938.40
2023-05-17T17:09:29.952Z,100942.40
2023-05-17T17:14:40.917Z,100954.40
2023-05-17T17:19:51.495Z,100958.40
2023-05-17T17:25:01.675Z,100962.80
2023-05-17T17:30:14.050Z,100965.20
2023-05-17T17:35:24.095Z,100965.20
2023-05-17T17:40:33.973Z,100972.20
2023-05-17T17:45:44.936Z,100982.80
2023-05-17T17:50:54.787Z,100975.00
2023-05-17T17:56:04.559Z,100981.60
2023-05-17T18:01:14.340Z,100988.80
2023-05-17T18:06:24.457Z,100994.20
2023-05-17T18:11:34.152Z,100987.80
2023-05-17T18:16:44.323Z,100995.20
2023-05-17T18:21:54.113Z,100999.60
2023-05-17T18:27:04.151Z,101000.20
2023-05-17T18:32:14.637Z,101004.00
2023-05-17T18:37:24.536Z,101013.00
2023-05-17T18:42:35.078Z,101019.60
2023-05-17T18:47:44.999Z,101039.60
2023-05-17T18:52:57.036Z,101041.80
2023-05-17T18:58:07.198Z,101045.40
2023-05-17T19:03:17.070Z,101051.00
2023-05-17T19:08:28.607Z,101058.60
2023-05-17T19:13:38.348Z,101055.40
2023-05-17T19:18:48.001Z,101058.60
2023-05-17T19:23:57.700Z,101061.40
2023-05-17T19:29:07.793Z,101045.80
2023-05-17T19:34:18.131Z,101047.00
2023-05-17T19:39:28.420Z,101041.40
2023-05-17T19:44:38.390Z,101045.60
2023-05-17T19:49:48.269Z,101049.60
2023-05-17T19:54:57.944Z,101054.20
2023-05-17T20:00:11.174Z,101058.00
2023-05-17T20:05:22.288Z,101059.80
2023-05-17T20:10:32.542Z,101062.80
2023-05-17T20:15:42.408Z,101064.20
2023-05-17T20:20:54.494Z,101056.80
2023-05-17T20:26:04.578Z,101070.40
2023-05-17T20:31:14.532Z,101069.20
2023-05-17T20:36:24.351Z,101069.40
2023-05-17T20:41:34.109Z,101070.20
2023-05-17T20:46:43.853Z,101073.00
2023-05-17T20:51:53.748Z,101082.60
2023-05-17T20:57:04.408Z,101081.60
2023-05-17T21:02:14.144Z,101086.40
2023-05-17T21:07:26.764Z,101083.60
2023-05-17T21:12:37.000Z,101086.00
2023-05-17T21:17:47.213Z,101086.20
2023-05-17T21:22:57.174Z,101085.20
2023-05-17T21:28:07.276Z,101078.80
2023-05-17T21:33:17.322Z,101092.00
2023-05-17T21:38:27.245Z,101094.00
2023-05-17T21:43:36.944Z,101109.00
2023-05-17T21:48:46.691Z,101111.00
2023-05-17T21:53:56.447Z,101103.80
2023-05-17T21:59:06.350Z,101093.60
2023-05-17T22:04:16.276Z,101099.40
2023-05-17T22:09:26.548Z,101086.40
2023-05-17T22:14:36.833Z,101088.00
2023-05-17T22:19:47.001Z,101103.20
2023-05-17T22:24:57.102Z,101087.20
2023-05-17T22:30:07.822Z,101075.20
2023-05-17T22:35:17.858Z,101079.20
2023-05-17T22:40:27.988Z,101081.20
2023-05-17T22:45:37.949Z,101090.00
2023-05-17T22:50:48.328Z,101085.80
2023-05-17T22:55:58.266Z,101091.80
2023-05-17T23:01:08.374Z,101092.40
2023-05-17T23:06:22.346Z,101098.60
2023-05-17T23:11:32.214Z,101091.40
2023-05-17T23:16:42.177Z,101103.80
2023-05-17T23:21:52.004Z,101123.20
2023-05-17T23:27:01.741Z,101132.00
2023-05-17T23:32:11.821Z,101135.00
2023-05-17T23:37:21.747Z,101136.00
2023-05-17T23:42:32.127Z,101131.60
2023-05-17T23:47:42.218Z,101150.80
2023-05-17T23:52:52.015Z,101155.80
2023-05-17T23:58:01.765Z,101157.60
